Terminal Aerodrome Forecast
Issued by NWS Lake Charles, LA

Home | Current Version | Previous Version | Text Only | Print | Product List | Glossary On
Versions: 1 2 3 4 5 6 7 8 9 10 11 12 13 14 15 16 17 18 19
000
FTUS44 KLCH 301139
TAFLCH
TAF
KLCH 301139Z 3012/0112 15011KT P6SM VCTS BKN015CB OVC025
      TEMPO 3012/3014 2SM TSRA BR BKN007CB
     FM301400 17012G18KT 4SM TSRA OVC015CB
      TEMPO 3014/3017 VRB15G30KT 1SM +TSRA OVC007CB
     FM301700 19010KT P6SM VCTS SCT015 BKN025CB
     FM010200 16005KT 5SM BR VCSH BKN015 OVC025=

USA.gov is the U.S. government's official web portal to all federal, state and local government web resources and services.